Time,TemperatureF,DewpointF,PressureIn,WindDirection,WindDirectionDegrees,WindSpeedMPH,WindSpeedGustMPH,Humidity,HourlyPrecipIn,Conditions,Clouds,dailyrainin,SoftwareType,DateUTC
2013-06-05 00:03:00,74.8,68.0,29.91,NE,45,2.2,2.2,79,0.00,,,0.00,WUHU216EASYWX,2013-06-05 05:03:00,
2013-06-05 00:08:00,74.8,68.0,29.91,NE,45,2.2,2.2,79,0.00,,,0.00,WUHU216EASYWX,2013-06-05 05:08:00,
2013-06-05 00:13:00,74.3,67.5,29.91,South,180,2.2,2.2,79,0.00,,,0.00,WUHU216EASYWX,2013-06-05 05:13:00,
2013-06-05 00:18:00,74.3,67.5,29.91,SE,135,0.7,0.7,79,0.00,,,0.00,WUHU216EASYWX,2013-06-05 05:18:00,
2013-06-05 00:23:00,74.3,67.5,29.91,SE,135,3.1,3.1,79,0.00,,,0.00,WUHU216EASYWX,2013-06-05 05:23:00,
2013-06-05 00:28:00,74.7,67.8,29.91,East,90,0.7,0.7,79,0.00,,,0.00,WUHU216EASYWX,2013-06-05 05:28:00,
2013-06-05 00:33:00,74.7,67.8,29.91,SE,135,1.6,1.6,79,0.00,,,0.00,WUHU216EASYWX,2013-06-05 05:33:00,
2013-06-05 00:38:00,74.7,67.8,29.91,East,90,3.1,3.1,79,0.00,,,0.00,WUHU216EASYWX,2013-06-05 05:38:00,
2013-06-05 00:43:00,74.7,67.8,29.91,South,180,2.2,2.2,79,0.00,,,0.00,WUHU216EASYWX,2013-06-05 05:43:00,
2013-06-05 00:48:00,74.7,67.8,29.92,SE,135,3.1,3.1,79,0.00,,,0.00,WUHU216EASYWX,2013-06-05 05:48:00,
2013-06-05 00:53:00,74.7,67.8,29.91,NE,45,2.2,2.2,79,0.00,,,0.00,WUHU216EASYWX,2013-06-05 05:53:00,
2013-06-05 00:58:00,74.7,67.8,29.92,East,90,2.2,2.2,79,0.00,,,0.00,WUHU216EASYWX,2013-06-05 05:58:00,
2013-06-05 01:03:00,74.7,67.8,29.91,East,90,3.1,3.1,79,0.00,,,0.00,WUHU216EASYWX,2013-06-05 06:03:00,
2013-06-05 01:08:00,74.7,67.8,29.91,East,90,3.1,3.1,79,0.00,,,0.00,WUHU216EASYWX,2013-06-05 06:08:00,
2013-06-05 01:13:00,74.7,67.8,29.91,East,90,4.5,4.5,79,0.00,,,0.00,WUHU216EASYWX,2013-06-05 06:13:00,
2013-06-05 01:18:00,74.7,67.8,29.91,SE,135,3.8,3.8,79,0.00,,,0.00,WUHU216EASYWX,2013-06-05 06:18:00,
2013-06-05 01:23:00,74.7,67.8,29.91,East,90,2.2,2.2,79,0.00,,,0.00,WUHU216EASYWX,2013-06-05 06:23:00,
2013-06-05 01:28:00,74.7,67.5,29.91,SE,135,3.1,3.1,78,0.00,,,0.00,WUHU216EASYWX,2013-06-05 06:28:00,
2013-06-05 01:33:00,74.7,67.5,29.91,SE,135,2.2,2.2,78,0.00,,,0.00,WUHU216EASYWX,2013-06-05 06:33:00,
2013-06-05 01:38:00,74.7,67.5,29.91,East,90,3.8,3.8,78,0.00,,,0.00,WUHU216EASYWX,2013-06-05 06:38:00,
2013-06-05 01:43:00,74.7,67.5,29.92,East,90,2.2,2.2,78,0.00,,,0.00,WUHU216EASYWX,2013-06-05 06:43:00,
2013-06-05 01:48:00,74.7,67.5,29.92,SE,135,3.1,3.1,78,0.00,,,0.00,WUHU216EASYWX,2013-06-05 06:48:00,
2013-06-05 01:53:00,74.7,67.5,29.92,SE,135,6.0,6.0,78,0.00,,,0.00,WUHU216EASYWX,2013-06-05 06:53:00,
2013-06-05 01:58:00,74.5,67.3,29.91,South,180,3.8,3.8,78,0.00,,,0.00,WUHU216EASYWX,2013-06-05 06:58:00,
2013-06-05 02:03:00,74.5,67.3,29.91,East,90,2.2,2.2,78,0.00,,,0.00,WUHU216EASYWX,2013-06-05 07:03:00,
2013-06-05 02:08:00,74.5,67.3,29.91,East,90,2.2,2.2,78,0.00,,,0.00,WUHU216EASYWX,2013-06-05 07:08:00,
2013-06-05 02:13:00,74.3,67.1,29.91,South,180,4.5,4.5,78,0.00,,,0.00,WUHU216EASYWX,2013-06-05 07:13:00,
2013-06-05 02:18:00,74.3,67.1,29.91,South,180,2.2,2.2,78,0.00,,,0.00,WUHU216EASYWX,2013-06-05 07:18:00,
2013-06-05 02:23:00,74.1,66.9,29.91,SW,225,0.7,0.7,78,0.00,,,0.00,WUHU216EASYWX,2013-06-05 07:23:00,
2013-06-05 02:28:00,74.1,66.9,29.91,SSE,158,0.7,0.7,78,0.00,,,0.00,WUHU216EASYWX,2013-06-05 07:28:00,
2013-06-05 02:33:00,73.8,66.6,29.90,SE,135,3.1,3.1,78,0.00,,,0.00,WUHU216EASYWX,2013-06-05 07:33:00,
2013-06-05 02:38:00,73.8,66.6,29.89,SE,135,3.1,3.1,78,0.00,,,0.00,WUHU216EASYWX,2013-06-05 07:38:00,
2013-06-05 02:43:00,73.9,67.1,29.89,SE,135,2.2,2.2,79,0.00,,,0.00,WUHU216EASYWX,2013-06-05 07:43:00,
2013-06-05 02:48:00,73.9,67.1,29.89,South,180,1.6,1.6,79,0.00,,,0.00,WUHU216EASYWX,2013-06-05 07:48:00,
2013-06-05 02:53:00,73.8,66.9,29.88,SE,135,3.1,3.1,79,0.00,,,0.00,WUHU216EASYWX,2013-06-05 07:53:00,
2013-06-05 02:58:00,73.8,66.9,29.88,SE,135,2.2,2.2,79,0.00,,,0.00,WUHU216EASYWX,2013-06-05 07:58:00,
2013-06-05 03:03:00,73.8,66.9,29.88,SE,135,3.1,3.1,79,0.00,,,0.00,WUHU216EASYWX,2013-06-05 08:03:00,
2013-06-05 03:08:00,73.8,66.9,29.88,SE,135,3.1,3.1,79,0.00,,,0.00,WUHU216EASYWX,2013-06-05 08:08:00,
2013-06-05 03:13:00,73.6,66.7,29.87,East,90,3.8,3.8,79,0.00,,,0.00,WUHU216EASYWX,2013-06-05 08:13:00,
2013-06-05 03:18:00,73.6,66.7,29.87,East,90,4.5,4.5,79,0.00,,,0.00,WUHU216EASYWX,2013-06-05 08:18:00,
2013-06-05 03:23:00,73.4,66.6,29.87,SE,135,2.2,2.2,79,0.00,,,0.00,WUHU216EASYWX,2013-06-05 08:23:00,
2013-06-05 03:28:00,73.4,66.6,29.87,SE,135,3.1,3.1,79,0.00,,,0.00,WUHU216EASYWX,2013-06-05 08:28:00,
2013-06-05 03:33:00,73.4,66.6,29.88,NE,45,3.1,3.1,79,0.00,,,0.00,WUHU216EASYWX,2013-06-05 08:33:00,
2013-06-05 03:38:00,73.4,66.6,29.87,SE,135,2.2,2.2,79,0.00,,,0.00,WUHU216EASYWX,2013-06-05 08:38:00,
2013-06-05 03:44:00,73.2,66.4,29.87,East,90,2.2,2.2,79,0.00,,,0.00,WUHU216EASYWX,2013-06-05 08:44:00,
2013-06-05 03:49:00,73.2,66.4,29.86,NE,45,2.2,2.2,79,0.00,,,0.00,WUHU216EASYWX,2013-06-05 08:49:00,
2013-06-05 03:54:00,73.2,66.4,29.86,SE,135,3.1,3.1,79,0.00,,,0.00,WUHU216EASYWX,2013-06-05 08:54:00,
2013-06-05 03:59:00,73.2,66.4,29.86,SE,135,2.2,2.2,79,0.00,,,0.00,WUHU216EASYWX,2013-06-05 08:59:00,
2013-06-05 04:04:00,73.0,66.2,29.85,SE,135,3.1,3.1,79,0.00,,,0.00,WUHU216EASYWX,2013-06-05 09:04:00,
2013-06-05 04:09:00,73.0,66.2,29.85,SE,135,3.1,3.1,79,0.00,,,0.00,WUHU216EASYWX,2013-06-05 09:09:00,
2013-06-05 04:14:00,72.9,66.0,29.85,SE,135,2.2,2.2,79,0.00,,,0.00,WUHU216EASYWX,2013-06-05 09:14:00,
2013-06-05 04:19:00,72.9,66.0,29.85,SE,135,1.6,1.6,79,0.00,,,0.00,WUHU216EASYWX,2013-06-05 09:19:00,
2013-06-05 04:24:00,72.9,66.0,29.86,SE,135,1.6,1.6,79,0.00,,,0.00,WUHU216EASYWX,2013-06-05 09:24:00,
2013-06-05 04:29:00,73.0,66.2,29.86,South,180,3.1,3.1,79,0.00,,,0.00,WUHU216EASYWX,2013-06-05 09:29:00,
2013-06-05 04:34:00,73.0,65.8,29.87,East,90,1.6,1.6,78,0.00,,,0.00,WUHU216EASYWX,2013-06-05 09:34:00,
2013-06-05 04:39:00,73.0,65.8,29.87,South,180,2.2,2.2,78,0.00,,,0.00,WUHU216EASYWX,2013-06-05 09:39:00,
2013-06-05 04:44:00,73.0,65.8,29.87,SE,135,1.6,1.6,78,0.00,,,0.00,WUHU216EASYWX,2013-06-05 09:44:00,
2013-06-05 04:49:00,73.0,65.8,29.87,East,90,1.6,1.6,78,0.00,,,0.00,WUHU216EASYWX,2013-06-05 09:49:00,
2013-06-05 04:54:00,72.9,65.7,29.87,South,180,0.7,0.7,78,0.00,,,0.00,WUHU216EASYWX,2013-06-05 09:54:00,
2013-06-05 04:59:00,72.9,65.7,29.88,South,180,1.6,1.6,78,0.00,,,0.00,WUHU216EASYWX,2013-06-05 09:59:00,
2013-06-05 05:04:00,72.9,65.7,29.88,South,180,2.2,2.2,78,0.00,,,0.00,WUHU216EASYWX,2013-06-05 10:04:00,
2013-06-05 05:09:00,72.9,65.7,29.88,South,180,2.2,2.2,78,0.00,,,0.00,WUHU216EASYWX,2013-06-05 10:09:00,
2013-06-05 05:14:00,72.7,65.8,29.87,SE,135,2.2,2.2,79,0.00,,,0.00,WUHU216EASYWX,2013-06-05 10:14:00,
2013-06-05 05:19:00,72.7,65.8,29.88,South,180,3.1,3.1,79,0.00,,,0.00,WUHU216EASYWX,2013-06-05 10:19:00,
2013-06-05 05:24:00,72.7,65.8,29.89,SW,225,1.6,1.6,79,0.00,,,0.00,WUHU216EASYWX,2013-06-05 10:24:00,
2013-06-05 05:29:00,72.7,65.8,29.93,West,270,5.4,5.4,79,0.00,,,0.00,WUHU216EASYWX,2013-06-05 10:29:00,
2013-06-05 05:34:00,72.9,64.9,29.93,NW,315,6.0,6.0,76,0.00,,,0.00,WUHU216EASYWX,2013-06-05 10:34:00,
2013-06-05 05:39:00,72.1,64.2,29.94,NW,315,3.8,3.8,76,0.00,,,0.00,WUHU216EASYWX,2013-06-05 10:39:00,
2013-06-05 05:44:00,70.5,64.4,29.95,NW,315,3.8,3.8,81,0.07,,,0.00,WUHU216EASYWX,2013-06-05 10:44:00,
2013-06-05 05:49:00,68.5,64.9,29.95,NW,315,3.8,3.8,88,0.12,,,0.08,WUHU216EASYWX,2013-06-05 10:49:00,
2013-06-05 05:54:00,67.6,64.9,29.94,North,0,3.1,3.1,91,0.25,,,0.12,WUHU216EASYWX,2013-06-05 10:54:00,
2013-06-05 05:59:00,67.1,65.1,29.96,NW,315,3.8,3.8,93,0.28,,,0.25,WUHU216EASYWX,2013-06-05 10:59:00,
2013-06-05 06:04:00,66.9,65.1,29.96,SW,225,2.2,2.2,94,0.31,,,0.29,WUHU216EASYWX,2013-06-05 11:04:00,
2013-06-05 06:09:00,66.6,64.8,29.96,East,90,1.6,1.6,94,0.33,,,0.31,WUHU216EASYWX,2013-06-05 11:09:00,
2013-06-05 06:14:00,66.4,64.9,29.97,South,180,2.2,2.2,95,0.34,,,0.33,WUHU216EASYWX,2013-06-05 11:14:00,
2013-06-05 06:19:00,66.4,64.9,29.97,North,0,0.0,0.0,95,0.35,,,0.35,WUHU216EASYWX,2013-06-05 11:19:00,
2013-06-05 06:24:00,66.4,64.9,29.96,North,0,0.0,0.0,95,0.35,,,0.36,WUHU216EASYWX,2013-06-05 11:24:00,
2013-06-05 06:29:00,66.4,64.9,29.96,North,0,0.0,0.0,95,0.35,,,0.36,WUHU216EASYWX,2013-06-05 11:29:00,
2013-06-05 06:34:00,66.6,65.5,29.96,West,270,1.6,1.6,96,0.38,,,0.36,WUHU216EASYWX,2013-06-05 11:34:00,
2013-06-05 06:39:00,66.6,65.5,29.97,West,270,0.7,0.7,96,0.39,,,0.38,WUHU216EASYWX,2013-06-05 11:39:00,
2013-06-05 06:44:00,66.4,65.3,29.98,SW,225,0.7,0.7,96,0.32,,,0.39,WUHU216EASYWX,2013-06-05 11:44:00,
2013-06-05 06:49:00,66.4,65.5,29.99,South,180,0.7,0.7,97,0.28,,,0.39,WUHU216EASYWX,2013-06-05 11:49:00,
2013-06-05 06:54:00,66.4,65.5,29.99,West,270,1.6,1.6,97,0.17,,,0.41,WUHU216EASYWX,2013-06-05 11:54:00,
2013-06-05 06:59:00,66.2,65.3,29.99,SW,225,5.4,5.4,97,0.15,,,0.42,WUHU216EASYWX,2013-06-05 11:59:00,
2013-06-05 07:04:00,66.2,65.3,29.98,NW,315,1.6,1.6,97,0.14,,,0.44,WUHU216EASYWX,2013-06-05 12:04:00,
2013-06-05 07:09:00,66.2,65.3,29.97,NW,315,1.6,1.6,97,0.12,,,0.45,WUHU216EASYWX,2013-06-05 12:09:00,
2013-06-05 07:14:00,65.8,64.9,29.98,North,0,0.0,0.0,97,0.14,,,0.45,WUHU216EASYWX,2013-06-05 12:14:00,
2013-06-05 07:19:00,65.8,64.9,29.98,North,0,2.2,2.2,97,0.15,,,0.49,WUHU216EASYWX,2013-06-05 12:19:00,
2013-06-05 07:24:00,65.8,64.9,29.98,West,270,2.2,2.2,97,0.17,,,0.51,WUHU216EASYWX,2013-06-05 12:24:00,
2013-06-05 07:29:00,66.0,65.1,29.99,West,270,1.6,1.6,97,0.18,,,0.52,WUHU216EASYWX,2013-06-05 12:29:00,
2013-06-05 07:34:00,65.8,64.9,29.98,North,0,0.0,0.0,97,0.17,,,0.54,WUHU216EASYWX,2013-06-05 12:34:00,
2013-06-05 07:39:00,65.8,64.9,29.97,North,0,0.0,0.0,97,0.17,,,0.55,WUHU216EASYWX,2013-06-05 12:39:00,
2013-06-05 07:44:00,66.0,65.5,29.95,East,90,3.8,3.8,98,0.19,,,0.56,WUHU216EASYWX,2013-06-05 12:44:00,
2013-06-05 07:49:00,65.8,64.9,29.92,East,90,4.5,4.5,97,0.20,,,0.58,WUHU216EASYWX,2013-06-05 12:49:00,
2013-06-05 07:54:00,66.0,65.5,29.90,East,90,3.1,3.1,98,0.20,,,0.61,WUHU216EASYWX,2013-06-05 12:54:00,
2013-06-05 07:59:00,65.8,64.9,29.88,East,90,4.5,4.5,97,0.19,,,0.62,WUHU216EASYWX,2013-06-05 12:59:00,
2013-06-05 08:04:00,65.7,64.8,29.87,NE,45,6.9,6.9,97,0.19,,,0.63,WUHU216EASYWX,2013-06-05 13:04:00,
2013-06-05 08:09:00,65.7,64.8,29.86,NE,45,6.9,6.9,97,0.19,,,0.64,WUHU216EASYWX,2013-06-05 13:09:00,
2013-06-05 08:14:00,65.8,64.9,29.85,East,90,6.0,6.0,97,0.17,,,0.64,WUHU216EASYWX,2013-06-05 13:14:00,
2013-06-05 08:19:00,65.8,64.9,29.85,East,90,3.1,3.1,97,0.14,,,0.65,WUHU216EASYWX,2013-06-05 13:19:00,
2013-06-05 08:24:00,66.0,65.1,29.87,SW,225,2.2,2.2,97,0.13,,,0.65,WUHU216EASYWX,2013-06-05 13:24:00,
2013-06-05 08:29:00,66.4,65.3,29.89,East,90,0.7,0.7,96,0.12,,,0.65,WUHU216EASYWX,2013-06-05 13:29:00,
2013-06-05 08:34:00,66.6,65.7,29.90,North,0,0.0,0.0,97,0.11,,,0.65,WUHU216EASYWX,2013-06-05 13:34:00,
2013-06-05 08:39:00,66.6,65.5,29.91,NW,315,1.6,1.6,96,0.11,,,0.65,WUHU216EASYWX,2013-06-05 13:39:00,
2013-06-05 08:44:00,66.7,65.8,29.91,South,180,1.6,1.6,97,0.08,,,0.67,WUHU216EASYWX,2013-06-05 13:44:00,
2013-06-05 08:49:00,66.7,65.8,29.91,West,270,1.6,1.6,97,0.06,,,0.67,WUHU216EASYWX,2013-06-05 13:49:00,
2013-06-05 08:54:00,66.7,65.8,29.91,SW,225,2.2,2.2,97,0.05,,,0.67,WUHU216EASYWX,2013-06-05 13:54:00,
2013-06-05 08:59:00,66.9,66.0,29.92,West,270,0.7,0.7,97,0.04,,,0.67,WUHU216EASYWX,2013-06-05 13:59:00,
2013-06-05 09:04:00,66.9,66.0,29.94,West,270,0.7,0.7,97,0.02,,,0.67,WUHU216EASYWX,2013-06-05 14:04:00,
2013-06-05 09:09:00,66.9,66.0,29.96,West,270,1.6,1.6,97,0.02,,,0.67,WUHU216EASYWX,2013-06-05 14:09:00,
2013-06-05 09:14:00,66.9,66.0,29.96,NW,315,5.4,5.4,97,0.01,,,0.67,WUHU216EASYWX,2013-06-05 14:14:00,
2013-06-05 09:19:00,66.9,65.8,29.97,NW,315,3.8,3.8,96,0.01,,,0.67,WUHU216EASYWX,2013-06-05 14:19:00,
2013-06-05 09:24:00,66.9,65.8,29.96,NW,315,0.7,0.7,96,0.01,,,0.67,WUHU216EASYWX,2013-06-05 14:24:00,
2013-06-05 09:29:00,67.3,66.2,29.96,North,0,0.0,0.0,96,0.01,,,0.67,WUHU216EASYWX,2013-06-05 14:29:00,
2013-06-05 09:34:00,67.3,66.2,29.96,North,0,0.0,0.0,96,0.01,,,0.67,WUHU216EASYWX,2013-06-05 14:34:00,
2013-06-05 09:39:00,67.8,66.7,29.96,North,0,0.0,0.0,96,0.00,,,0.67,WUHU216EASYWX,2013-06-05 14:39:00,
2013-06-05 09:44:00,67.8,66.4,29.96,NW,315,3.8,3.8,95,0.00,,,0.67,WUHU216EASYWX,2013-06-05 14:44:00,
2013-06-05 09:49:00,67.8,66.4,29.97,West,270,0.7,0.7,95,0.00,,,0.67,WUHU216EASYWX,2013-06-05 14:49:00,
2013-06-05 09:54:00,68.0,66.6,29.97,NW,315,2.2,2.2,95,0.00,,,0.67,WUHU216EASYWX,2013-06-05 14:54:00,
2013-06-05 09:59:00,68.0,66.6,29.98,SW,225,3.1,3.1,95,0.00,,,0.67,WUHU216EASYWX,2013-06-05 14:59:00,
2013-06-05 10:04:00,67.6,66.2,29.97,South,180,2.2,2.2,95,0.00,,,0.67,WUHU216EASYWX,2013-06-05 15:04:00,
2013-06-05 10:09:00,67.8,66.4,29.95,SE,135,0.7,0.7,95,0.00,,,0.67,WUHU216EASYWX,2013-06-05 15:09:00,
2013-06-05 10:14:00,67.8,66.3,29.90,East,90,6.9,6.9,95,0.00,,,0.67,WUHU216EASYWX,2013-06-05 15:14:00,
2013-06-05 10:19:00,67.6,66.1,29.89,NE,45,0.7,0.7,95,0.00,,,0.67,WUHU216EASYWX,2013-06-05 15:19:00,
2013-06-05 10:24:00,67.6,66.4,29.89,East,90,2.2,2.2,96,0.00,,,0.67,WUHU216EASYWX,2013-06-05 15:24:00,
2013-06-05 10:29:00,68.0,66.8,29.89,SE,135,3.1,3.1,96,0.00,,,0.67,WUHU216EASYWX,2013-06-05 15:29:00,
2013-06-05 10:34:00,72.7,65.8,29.87,SE,135,2.2,2.2,79,0.40,,,0.67,WUHU216EASYWX,2013-06-05 15:34:00,
2013-06-05 10:39:00,72.7,65.8,29.87,SE,135,2.2,3.8,79,0.40,,,0.67,WUHU216EASYWX,2013-06-05 15:39:00,
2013-06-05 22:17:00,74.1,66.6,29.94,NW,315,2.2,2.2,77,0.00,,,0.67,WUHU216EASYWX,2013-06-06 03:17:00,
2013-06-05 22:22:00,73.6,66.7,29.94,NE,45,4.5,4.5,79,0.00,,,0.67,WUHU216EASYWX,2013-06-06 03:22:00,
2013-06-05 22:27:00,73.6,67.1,29.93,NE,45,5.4,5.4,80,0.00,,,0.67,WUHU216EASYWX,2013-06-06 03:27:00,
2013-06-05 22:32:00,73.2,66.7,29.94,SE,135,1.6,1.6,80,0.00,,,0.67,WUHU216EASYWX,2013-06-06 03:32:00,
2013-06-05 22:37:00,73.0,66.9,29.94,North,0,0.0,0.0,81,0.00,,,0.67,WUHU216EASYWX,2013-06-06 03:37:00,
2013-06-05 22:42:00,72.9,67.1,29.94,NW,315,3.8,3.8,82,0.00,,,0.67,WUHU216EASYWX,2013-06-06 03:42:00,
2013-06-05 22:47:00,72.5,67.1,29.94,NE,45,2.2,2.2,83,0.00,,,0.67,WUHU216EASYWX,2013-06-06 03:47:00,
2013-06-05 22:52:00,72.3,66.9,29.94,East,90,1.6,1.6,83,0.00,,,0.67,WUHU216EASYWX,2013-06-06 03:52:00,
2013-06-05 22:57:00,72.0,66.9,29.95,West,270,1.6,1.6,84,0.00,,,0.67,WUHU216EASYWX,2013-06-06 03:57:00,
2013-06-05 23:02:00,71.6,66.6,29.94,SE,135,3.8,3.8,84,0.00,,,0.67,WUHU216EASYWX,2013-06-06 04:02:00,
2013-06-05 23:07:00,71.6,66.6,29.94,SE,135,3.8,3.8,84,0.00,,,0.67,WUHU216EASYWX,2013-06-06 04:07:00,
2013-06-05 23:12:00,71.2,66.6,29.95,West,270,1.6,1.6,85,0.00,,,0.67,WUHU216EASYWX,2013-06-06 04:12:00,
2013-06-05 23:17:00,71.1,66.4,29.95,North,0,2.2,2.2,85,0.00,,,0.67,WUHU216EASYWX,2013-06-06 04:17:00,
2013-06-05 23:22:00,70.9,66.2,29.96,NE,45,1.6,1.6,85,0.00,,,0.67,WUHU216EASYWX,2013-06-06 04:22:00,
2013-06-05 23:27:00,70.7,66.0,29.95,SE,135,3.1,3.1,85,0.00,,,0.67,WUHU216EASYWX,2013-06-06 04:27:00,
2013-06-05 23:32:00,70.5,65.8,29.95,NW,315,1.6,1.6,85,0.00,,,0.67,WUHU216EASYWX,2013-06-06 04:32:00,
2013-06-05 23:37:00,70.3,65.7,29.95,North,0,0.0,0.0,85,0.00,,,0.67,WUHU216EASYWX,2013-06-06 04:37:00,
2013-06-05 23:42:00,70.2,65.8,29.95,North,0,0.0,0.0,86,0.00,,,0.67,WUHU216EASYWX,2013-06-06 04:42:00,
2013-06-05 23:47:00,70.0,65.7,29.96,North,0,3.1,3.1,86,0.00,,,0.67,WUHU216EASYWX,2013-06-06 04:47:00,
2013-06-05 23:52:00,69.8,65.5,29.95,NE,45,0.7,0.7,86,0.00,,,0.67,WUHU216EASYWX,2013-06-06 04:52:00,
2013-06-05 23:57:00,69.6,65.7,29.96,North,0,2.2,2.2,87,0.00,,,0.67,WUHU216EASYWX,2013-06-06 04:57:00,